createdAt,value
2022-08-22T00:00:13.891Z,79.00
2022-08-22T00:02:21.459Z,79.40
2022-08-22T00:02:49.863Z,75.92
2022-08-22T00:02:49.989Z,75.29
2022-08-22T00:02:56.358Z,63.25
2022-08-22T00:02:59.341Z,79.23
2022-08-22T00:03:16.022Z,79.53
2022-08-22T00:04:29.845Z,79.24
2022-08-22T00:06:44.638Z,79.86
2022-08-22T00:08:55.558Z,79.56
2022-08-22T00:11:02.637Z,79.21
2022-08-22T00:13:09.916Z,81.14
2022-08-22T00:15:43.653Z,79.17
2022-08-22T00:17:49.055Z,80.78
2022-08-22T00:19:57.103Z,81.09
2022-08-22T00:22:03.619Z,80.66
2022-08-22T00:24:11.878Z,81.50
2022-08-22T00:26:24.689Z,80.30
2022-08-22T00:28:31.383Z,81.92
2022-08-22T00:30:45.812Z,80.65
2022-08-22T00:32:51.864Z,80.41
2022-08-22T00:34:58.947Z,81.88
2022-08-22T00:37:04.999Z,80.98
2022-08-22T00:39:13.099Z,82.08
2022-08-22T00:41:32.115Z,82.45
2022-08-22T00:43:58.579Z,81.21
2022-08-22T00:46:19.635Z,81.09
2022-08-22T00:48:49.470Z,83.02
2022-08-22T00:51:05.474Z,82.13
2022-08-22T00:53:27.438Z,82.15
2022-08-22T00:55:45.299Z,82.67
2022-08-22T00:58:03.502Z,81.80
2022-08-22T01:00:13.115Z,82.74
2022-08-22T01:02:31.766Z,83.25
2022-08-22T01:05:08.353Z,82.63
2022-08-22T01:07:38.158Z,83.16
2022-08-22T01:09:50.866Z,82.81
2022-08-22T01:12:11.789Z,83.79
2022-08-22T01:14:34.251Z,83.67
2022-08-22T01:16:52.072Z,81.91
2022-08-22T01:19:08.478Z,83.08
2022-08-22T01:21:49.847Z,83.83
2022-08-22T01:24:32.859Z,82.01
2022-08-22T01:27:13.766Z,83.42
2022-08-22T01:29:49.516Z,84.21
2022-08-22T01:32:28.165Z,83.18
2022-08-22T01:34:41.659Z,83.11
2022-08-22T01:37:01.629Z,84.89
2022-08-22T01:39:25.712Z,82.93
2022-08-22T01:41:46.793Z,82.92
2022-08-22T01:44:10.021Z,83.69
2022-08-22T01:46:27.050Z,82.59
2022-08-22T01:48:36.003Z,84.83
2022-08-22T01:50:43.499Z,83.44
2022-08-22T01:52:50.707Z,82.90
2022-08-22T01:54:56.169Z,85.11
2022-08-22T01:57:04.467Z,83.67
2022-08-22T01:59:11.214Z,83.85
2022-08-22T02:01:21.453Z,83.24
2022-08-22T02:03:27.191Z,84.17
2022-08-22T02:05:33.575Z,83.17
2022-08-22T02:07:46.155Z,83.48
2022-08-22T02:09:54.117Z,82.88
2022-08-22T02:11:59.754Z,83.26
2022-08-22T02:14:14.067Z,83.76
2022-08-22T02:16:21.561Z,84.25
2022-08-22T02:18:29.168Z,85.00
2022-08-22T02:20:35.408Z,84.24
2022-08-22T02:22:44.921Z,84.08
2022-08-22T02:24:52.377Z,84.08
2022-08-22T02:27:06.241Z,84.05
2022-08-22T02:29:13.407Z,83.70
2022-08-22T02:31:21.521Z,85.31
2022-08-22T02:33:30.147Z,84.90
2022-08-22T02:35:38.867Z,84.70
2022-08-22T02:37:50.594Z,84.16
2022-08-22T02:40:03.190Z,85.75
2022-08-22T02:42:16.329Z,84.80
2022-08-22T02:44:22.617Z,86.02
2022-08-22T02:46:31.542Z,85.69
2022-08-22T02:48:38.380Z,86.42
2022-08-22T02:50:45.531Z,85.53
2022-08-22T02:53:02.367Z,85.47
2022-08-22T02:55:09.172Z,84.66
2022-08-22T02:57:14.142Z,86.34
2022-08-22T02:59:26.081Z,86.45
2022-08-22T03:01:40.784Z,85.02
2022-08-22T03:03:47.712Z,85.15
2022-08-22T03:06:01.018Z,86.53
2022-08-22T03:08:13.129Z,85.16
2022-08-22T03:10:22.926Z,86.52
2022-08-22T03:12:32.124Z,86.76
2022-08-22T03:14:43.085Z,86.97
2022-08-22T03:16:50.720Z,87.11
2022-08-22T03:18:57.295Z,85.63
2022-08-22T03:21:14.930Z,87.03
2022-08-22T03:23:32.670Z,87.39
2022-08-22T03:25:39.265Z,86.55
2022-08-22T03:27:49.471Z,87.58
2022-08-22T03:29:55.855Z,86.44
2022-08-22T03:32:12.255Z,87.39
2022-08-22T03:34:22.172Z,87.37
2022-08-22T03:36:28.259Z,86.66
2022-08-22T03:38:49.177Z,85.88
2022-08-22T03:41:16.407Z,87.07
2022-08-22T03:43:32.252Z,86.82
2022-08-22T03:46:04.419Z,87.01
2022-08-22T03:48:36.573Z,86.94
2022-08-22T03:51:00.020Z,86.60
2022-08-22T03:53:41.068Z,87.49
2022-08-22T03:56:46.420Z,86.99
2022-08-22T03:59:12.273Z,86.83
2022-08-22T04:01:41.360Z,87.24
2022-08-22T04:04:24.042Z,87.80
2022-08-22T04:06:56.403Z,87.38
2022-08-22T04:09:27.603Z,87.71
2022-08-22T04:11:46.880Z,87.95
2022-08-22T04:13:58.698Z,88.25
2022-08-22T04:16:15.974Z,88.63
2022-08-22T04:18:37.871Z,88.15
2022-08-22T04:21:28.837Z,87.91
2022-08-22T04:23:57.931Z,86.97
2022-08-22T04:26:11.958Z,87.83
2022-08-22T04:28:20.818Z,88.34
2022-08-22T04:30:28.659Z,87.85
2022-08-22T04:32:36.451Z,87.45
2022-08-22T04:34:42.629Z,87.76
2022-08-22T04:36:48.704Z,87.98
2022-08-22T04:38:55.807Z,88.44
2022-08-22T04:41:04.943Z,87.57
2022-08-22T04:43:11.090Z,88.13
2022-08-22T04:45:18.173Z,87.24
2022-08-22T04:47:29.940Z,87.74
2022-08-22T04:49:36.995Z,87.74
2022-08-22T04:51:42.281Z,88.83
2022-08-22T04:53:57.505Z,88.71
2022-08-22T04:56:08.247Z,88.58
2022-08-22T04:58:23.146Z,87.85
2022-08-22T05:00:26.234Z,88.26
2022-08-22T05:02:31.174Z,87.61
2022-08-22T05:04:36.938Z,88.22
2022-08-22T05:06:41.494Z,87.14
2022-08-22T05:08:46.446Z,87.00
2022-08-22T05:10:57.312Z,87.57
2022-08-22T05:13:04.412Z,87.29
2022-08-22T05:15:12.038Z,88.08
2022-08-22T05:17:19.322Z,87.99
2022-08-22T05:19:33.196Z,85.79
2022-08-22T05:21:39.598Z,86.43
2022-08-22T05:23:44.229Z,86.63
2022-08-22T05:25:51.201Z,83.76
2022-08-22T05:27:56.854Z,84.26
2022-08-22T05:30:06.104Z,83.61
2022-08-22T05:32:15.533Z,83.00
2022-08-22T05:34:23.164Z,83.04
2022-08-22T05:36:28.302Z,81.55
2022-08-22T05:38:33.599Z,82.56
2022-08-22T05:40:37.705Z,80.95
2022-08-22T05:42:41.221Z,80.56
2022-08-22T05:44:44.448Z,79.94
2022-08-22T05:46:52.807Z,80.14
2022-08-22T05:48:58.552Z,79.79
2022-08-22T05:51:09.422Z,78.81
2022-08-22T05:53:15.467Z,77.75
2022-08-22T05:55:26.302Z,77.46
2022-08-22T05:57:32.407Z,77.43
2022-08-22T05:59:37.044Z,77.45
2022-08-22T06:01:47.862Z,75.62
2022-08-22T06:04:02.472Z,76.35
2022-08-22T06:06:12.616Z,75.52
2022-08-22T06:08:19.681Z,74.59
2022-08-22T06:10:27.301Z,75.24
2022-08-22T06:12:34.260Z,74.22
2022-08-22T06:14:42.463Z,74.26
2022-08-22T06:16:48.905Z,73.63
2022-08-22T06:18:52.864Z,72.24
2022-08-22T06:20:59.628Z,74.10
2022-08-22T06:23:04.020Z,71.64
2022-08-22T06:25:09.327Z,71.63
2022-08-22T06:27:14.370Z,70.67
2022-08-22T06:29:27.177Z,72.52
2022-08-22T06:31:32.465Z,70.96
2022-08-22T06:33:38.438Z,69.98
2022-08-22T06:36:00.944Z,69.91
2022-08-22T06:38:05.330Z,69.89
2022-08-22T06:40:10.207Z,70.46
2022-08-22T06:42:16.848Z,69.88
2022-08-22T06:44:23.318Z,70.25
2022-08-22T06:46:28.455Z,69.90
2022-08-22T06:48:31.747Z,68.72
2022-08-22T06:50:36.853Z,68.87
2022-08-22T06:52:50.813Z,68.07
2022-08-22T06:55:00.274Z,67.74
2022-08-22T06:57:05.143Z,68.46
2022-08-22T06:59:11.309Z,67.93
2022-08-22T07:01:17.748Z,67.19
2022-08-22T07:03:26.055Z,67.65
2022-08-22T07:05:30.982Z,68.58
2022-08-22T07:07:34.059Z,67.79
2022-08-22T07:09:38.951Z,67.99
2022-08-22T07:11:43.648Z,67.10
2022-08-22T07:13:50.680Z,67.36
2022-08-22T07:15:56.257Z,67.66
2022-08-22T07:18:01.944Z,66.52
2022-08-22T07:20:11.465Z,65.55
2022-08-22T07:22:17.198Z,65.64
2022-08-22T07:24:24.528Z,65.90
2022-08-22T07:26:32.702Z,65.53
2022-08-22T07:28:51.155Z,65.14
2022-08-22T07:31:05.377Z,63.29
2022-08-22T07:33:26.726Z,63.16
2022-08-22T07:35:32.012Z,62.98
2022-08-22T07:37:55.830Z,62.58
2022-08-22T07:40:05.123Z,61.77
2022-08-22T07:42:12.982Z,64.20
2022-08-22T07:44:18.930Z,62.10
2022-08-22T07:46:28.532Z,60.15
2022-08-22T07:48:40.867Z,60.69
2022-08-22T07:51:00.442Z,59.76
2022-08-22T07:53:08.696Z,59.32
2022-08-22T07:55:17.664Z,60.07
2022-08-22T07:57:24.199Z,59.13
2022-08-22T07:59:29.956Z,57.38
2022-08-22T08:01:33.252Z,58.00
2022-08-22T08:03:36.656Z,58.24
2022-08-22T08:05:42.757Z,58.54
2022-08-22T08:07:47.825Z,56.42
2022-08-22T08:09:56.400Z,56.55
2022-08-22T08:12:00.848Z,57.39
2022-08-22T08:14:05.316Z,56.99
2022-08-22T08:16:13.536Z,57.81
2022-08-22T08:18:21.967Z,57.18
2022-08-22T08:20:27.238Z,57.00
2022-08-22T08:22:30.630Z,57.71
2022-08-22T08:24:40.191Z,56.78
2022-08-22T08:27:05.943Z,56.19
2022-08-22T08:29:09.210Z,55.68
2022-08-22T08:31:21.573Z,56.80
2022-08-22T08:33:28.108Z,56.46
2022-08-22T08:36:01.963Z,55.70
2022-08-22T08:38:03.434Z,55.28
2022-08-22T08:40:20.267Z,56.14
2022-08-22T08:43:02.825Z,56.25
2022-08-22T08:45:20.408Z,56.35
2022-08-22T08:47:32.687Z,54.87
2022-08-22T08:50:08.216Z,55.15
2022-08-22T08:52:24.441Z,54.89
2022-08-22T08:54:43.348Z,55.37
2022-08-22T08:56:54.410Z,56.60
2022-08-22T08:59:10.265Z,55.60
2022-08-22T09:01:29.802Z,55.77
2022-08-22T09:03:54.453Z,55.83
2022-08-22T09:06:07.197Z,55.84
2022-08-22T09:08:47.520Z,56.59
2022-08-22T09:11:19.244Z,57.09
2022-08-22T09:13:48.450Z,57.39
2022-08-22T09:16:04.780Z,57.54
2022-08-22T09:19:03.654Z,56.03
2022-08-22T09:21:30.800Z,57.94
2022-08-22T09:24:18.638Z,54.46
2022-08-22T09:26:28.211Z,54.26
2022-08-22T09:28:37.250Z,54.55
2022-08-22T09:31:16.981Z,56.69
2022-08-22T09:33:35.085Z,54.09
2022-08-22T09:35:47.903Z,53.75
2022-08-22T09:38:16.539Z,55.34
2022-08-22T09:40:29.050Z,54.25
2022-08-22T09:42:44.934Z,55.77
2022-08-22T09:44:59.786Z,55.51
2022-08-22T09:47:08.546Z,54.82
2022-08-22T09:49:14.724Z,54.45
2022-08-22T09:51:34.441Z,53.78
2022-08-22T09:53:53.069Z,54.22
2022-08-22T09:56:15.010Z,53.26
2022-08-22T09:58:23.621Z,54.23
2022-08-22T10:00:33.568Z,53.70
2022-08-22T10:02:43.539Z,53.98
2022-08-22T10:04:47.938Z,54.65
2022-08-22T10:06:59.519Z,55.33
2022-08-22T10:09:08.972Z,54.34
2022-08-22T10:11:20.798Z,54.67
2022-08-22T10:13:34.372Z,53.96
2022-08-22T10:15:42.634Z,54.15
2022-08-22T10:17:53.268Z,53.75
2022-08-22T10:20:05.872Z,53.23
2022-08-22T10:22:36.998Z,52.56
2022-08-22T10:24:48.496Z,53.59
2022-08-22T10:26:54.484Z,53.56
2022-08-22T10:29:01.656Z,54.29
2022-08-22T10:31:22.507Z,53.45
2022-08-22T10:33:29.403Z,53.67
2022-08-22T10:35:35.734Z,53.19
2022-08-22T10:37:46.069Z,52.57
2022-08-22T10:39:56.269Z,51.92
2022-08-22T10:42:19.369Z,51.76
2022-08-22T10:44:32.061Z,52.69
2022-08-22T10:46:38.945Z,52.99
2022-08-22T10:48:50.325Z,53.89
2022-08-22T10:50:58.521Z,54.86
2022-08-22T10:53:24.696Z,54.10
2022-08-22T10:55:33.513Z,53.69
2022-08-22T10:57:56.722Z,54.41
2022-08-22T11:00:07.107Z,53.97
2022-08-22T11:02:26.177Z,52.60
2022-08-22T11:04:39.178Z,53.37
2022-08-22T11:06:46.499Z,53.75
2022-08-22T11:09:10.904Z,53.77
2022-08-22T11:11:21.270Z,51.62
2022-08-22T11:13:28.423Z,52.44
2022-08-22T11:15:53.025Z,52.16
2022-08-22T11:18:14.798Z,52.09
2022-08-22T11:20:22.218Z,52.04
2022-08-22T11:22:31.460Z,50.27
2022-08-22T11:25:06.705Z,51.30
2022-08-22T11:27:20.868Z,50.84
2022-08-22T11:29:39.674Z,50.32
2022-08-22T11:31:52.215Z,49.39
2022-08-22T11:34:01.048Z,49.95
2022-08-22T11:36:12.805Z,48.72
2022-08-22T11:38:31.213Z,49.33
2022-08-22T11:40:43.709Z,50.22
2022-08-22T11:42:50.121Z,50.34
2022-08-22T11:44:55.933Z,50.46
2022-08-22T11:47:01.320Z,51.62
2022-08-22T11:49:27.244Z,49.65
2022-08-22T11:51:47.147Z,49.95
2022-08-22T11:53:56.394Z,49.43
2022-08-22T11:56:12.222Z,49.74
2022-08-22T11:58:29.281Z,49.21
2022-08-22T12:00:37.183Z,49.38
2022-08-22T12:02:54.899Z,48.89
2022-08-22T12:05:03.911Z,48.77
2022-08-22T12:07:14.388Z,48.62
2022-08-22T12:09:40.134Z,48.59
2022-08-22T12:11:54.451Z,47.94
2022-08-22T12:14:06.546Z,48.39
2022-08-22T12:16:15.709Z,48.26
2022-08-22T12:18:31.072Z,47.88
2022-08-22T12:20:49.931Z,48.05
2022-08-22T12:23:12.134Z,50.08
2022-08-22T12:25:24.046Z,48.36
2022-08-22T12:27:49.723Z,48.18
2022-08-22T12:30:05.547Z,47.82
2022-08-22T12:32:43.726Z,48.85
2022-08-22T12:34:55.495Z,47.76
2022-08-22T12:37:04.796Z,48.21
2022-08-22T12:39:27.299Z,47.37
2022-08-22T12:41:56.894Z,48.13
2022-08-22T12:44:07.811Z,48.84
2022-08-22T12:46:28.231Z,49.16
2022-08-22T12:48:44.073Z,48.62
2022-08-22T12:50:51.731Z,48.71
2022-08-22T12:53:07.875Z,48.60
2022-08-22T12:55:25.492Z,48.72
2022-08-22T12:57:38.860Z,49.29
2022-08-22T12:59:45.393Z,48.50
2022-08-22T13:01:50.511Z,48.49
2022-08-22T13:03:57.350Z,49.82
2022-08-22T13:06:04.496Z,48.49
2022-08-22T13:08:17.592Z,47.88
2022-08-22T13:10:34.816Z,48.26
2022-08-22T13:12:44.455Z,48.58
2022-08-22T13:14:53.512Z,48.77
2022-08-22T13:16:58.696Z,48.61
2022-08-22T13:19:07.638Z,49.26
2022-08-22T13:21:15.161Z,48.81
2022-08-22T13:23:24.077Z,48.32
2022-08-22T13:25:29.247Z,48.39
2022-08-22T13:27:34.982Z,48.61
2022-08-22T13:29:43.018Z,49.12
2022-08-22T13:31:52.606Z,48.35
2022-08-22T13:34:00.711Z,48.21
2022-08-22T13:36:06.686Z,48.68
2022-08-22T13:38:13.631Z,48.59
2022-08-22T13:40:24.723Z,48.35
2022-08-22T13:42:31.376Z,47.91
2022-08-22T13:44:39.218Z,47.85
2022-08-22T13:46:58.185Z,46.57
2022-08-22T13:49:09.454Z,47.17
2022-08-22T13:51:16.235Z,47.15
2022-08-22T13:53:27.693Z,49.08
2022-08-22T13:55:37.554Z,47.88
2022-08-22T13:57:51.705Z,48.16
2022-08-22T14:00:05.836Z,47.76
2022-08-22T14:02:17.801Z,47.61
2022-08-22T14:04:28.835Z,46.91
2022-08-22T14:06:43.917Z,48.15
2022-08-22T14:08:48.222Z,49.19
2022-08-22T14:10:55.616Z,48.37
2022-08-22T14:13:32.614Z,47.70
2022-08-22T14:15:45.727Z,47.77
2022-08-22T14:17:49.838Z,47.83
2022-08-22T14:20:01.546Z,48.41
2022-08-22T14:22:08.423Z,48.59
2022-08-22T14:24:20.426Z,47.58
2022-08-22T14:26:33.087Z,47.83
2022-08-22T14:28:40.678Z,47.99
2022-08-22T14:30:59.464Z,47.18
2022-08-22T14:33:12.439Z,47.19
2022-08-22T14:35:34.858Z,47.31
2022-08-22T14:37:43.074Z,48.03
2022-08-22T14:39:48.249Z,48.02
2022-08-22T14:41:58.653Z,47.50
2022-08-22T14:44:07.055Z,47.88
2022-08-22T14:46:14.243Z,48.12
2022-08-22T14:48:30.965Z,48.73
2022-08-22T14:50:46.120Z,47.96
2022-08-22T14:53:05.615Z,47.64
2022-08-22T14:55:22.095Z,47.22
2022-08-22T14:57:25.421Z,47.84
2022-08-22T14:59:36.564Z,47.37
2022-08-22T15:01:54.922Z,47.21
2022-08-22T15:04:02.861Z,47.42
2022-08-22T15:06:12.482Z,48.54
2022-08-22T15:08:28.140Z,47.60
2022-08-22T15:10:33.113Z,48.16
2022-08-22T15:12:40.373Z,47.85
2022-08-22T15:14:51.941Z,48.50
2022-08-22T15:16:57.476Z,47.88
2022-08-22T15:19:02.106Z,47.66
2022-08-22T15:21:10.071Z,47.33
2022-08-22T15:23:23.427Z,48.69
2022-08-22T15:25:29.831Z,48.60
2022-08-22T15:27:36.668Z,47.56
2022-08-22T15:29:51.381Z,47.43
2022-08-22T15:31:57.672Z,47.07
2022-08-22T15:34:11.201Z,46.31
2022-08-22T15:36:24.121Z,47.34
2022-08-22T15:38:30.805Z,47.32
2022-08-22T15:40:40.484Z,47.18
2022-08-22T15:42:45.824Z,47.05
2022-08-22T15:44:55.220Z,46.66
2022-08-22T15:47:01.459Z,46.96
2022-08-22T15:49:07.741Z,47.25
2022-08-22T15:51:33.802Z,47.80
2022-08-22T15:54:00.971Z,47.86
2022-08-22T15:56:29.661Z,47.32
2022-08-22T15:58:33.148Z,48.20
2022-08-22T16:00:43.848Z,48.26
2022-08-22T16:02:57.481Z,47.54
2022-08-22T16:05:19.058Z,47.79
2022-08-22T16:07:28.877Z,47.63
2022-08-22T16:09:36.394Z,48.17
2022-08-22T16:11:40.591Z,48.51
2022-08-22T16:13:45.763Z,48.87
2022-08-22T16:16:01.431Z,48.34
2022-08-22T16:18:04.652Z,48.43
2022-08-22T16:20:43.310Z,48.17
2022-08-22T16:23:09.547Z,48.80
2022-08-22T16:25:14.228Z,48.31
2022-08-22T16:27:20.751Z,49.20
2022-08-22T16:29:32.061Z,48.36
2022-08-22T16:31:58.267Z,48.90
2022-08-22T16:34:24.099Z,49.50
2022-08-22T16:36:41.963Z,49.84
2022-08-22T16:38:49.407Z,49.58
2022-08-22T16:40:52.453Z,49.41
2022-08-22T16:43:14.131Z,49.48
2022-08-22T16:45:20.521Z,49.10
2022-08-22T16:47:25.885Z,49.47
2022-08-22T16:49:30.862Z,49.35
2022-08-22T16:51:33.836Z,49.02
2022-08-22T16:54:18.204Z,48.50
2022-08-22T16:56:28.008Z,49.21
2022-08-22T16:59:14.089Z,49.16
2022-08-22T17:01:34.968Z,48.64
2022-08-22T17:03:43.676Z,48.75
2022-08-22T17:05:54.831Z,49.12
2022-08-22T17:08:08.003Z,49.12
2022-08-22T17:10:25.264Z,49.26
2022-08-22T17:12:39.181Z,49.73
2022-08-22T17:14:48.801Z,50.16
2022-08-22T17:16:58.476Z,49.18
2022-08-22T17:19:14.668Z,50.04
2022-08-22T17:21:25.811Z,49.55
2022-08-22T17:23:36.269Z,49.67
2022-08-22T17:25:51.573Z,49.52
2022-08-22T17:28:07.554Z,50.33
2022-08-22T17:30:14.363Z,50.06
2022-08-22T17:32:22.504Z,50.22
2022-08-22T17:34:34.172Z,49.84
2022-08-22T17:36:54.084Z,50.53
2022-08-22T17:39:05.723Z,50.54
2022-08-22T17:41:17.602Z,50.85
2022-08-22T17:43:33.556Z,51.70
2022-08-22T17:46:12.771Z,50.56
2022-08-22T17:48:19.919Z,51.22
2022-08-22T17:50:26.837Z,51.45
2022-08-22T17:52:36.115Z,51.68
2022-08-22T17:54:41.747Z,52.09
2022-08-22T17:56:47.155Z,52.75
2022-08-22T17:59:08.598Z,52.40
2022-08-22T18:01:14.988Z,52.33
2022-08-22T18:03:23.481Z,52.58
2022-08-22T18:05:29.714Z,52.39
2022-08-22T18:07:55.179Z,53.29
2022-08-22T18:10:01.931Z,53.08
2022-08-22T18:12:09.306Z,53.38
2022-08-22T18:14:25.540Z,53.16
2022-08-22T18:16:30.698Z,53.39
2022-08-22T18:18:37.108Z,54.21
2022-08-22T18:20:48.159Z,53.77
2022-08-22T18:22:54.464Z,54.39
2022-08-22T18:25:02.620Z,54.14
2022-08-22T18:27:10.359Z,53.86
2022-08-22T18:29:47.046Z,54.31
2022-08-22T18:31:52.617Z,54.91
2022-08-22T18:34:00.706Z,55.00
2022-08-22T18:36:10.756Z,54.44
2022-08-22T18:38:22.259Z,55.02
2022-08-22T18:40:33.531Z,55.34
2022-08-22T18:42:41.436Z,55.27
2022-08-22T18:44:46.217Z,55.04
2022-08-22T18:46:52.006Z,54.87
2022-08-22T18:49:14.758Z,54.84
2022-08-22T18:51:24.776Z,55.70
2022-08-22T18:53:38.038Z,56.08
2022-08-22T18:55:47.775Z,56.33
2022-08-22T18:58:11.121Z,55.37
2022-08-22T19:00:17.798Z,55.30
2022-08-22T19:02:55.945Z,56.21
2022-08-22T19:05:33.366Z,56.63
2022-08-22T19:08:05.171Z,56.42
2022-08-22T19:10:23.313Z,55.97
2022-08-22T19:12:37.184Z,57.17
2022-08-22T19:15:12.377Z,57.40
2022-08-22T19:17:33.981Z,57.67
2022-08-22T19:20:01.922Z,56.66
2022-08-22T19:22:27.835Z,55.96
2022-08-22T19:25:09.061Z,55.69
2022-08-22T19:27:31.167Z,57.00
2022-08-22T19:29:59.944Z,56.97
2022-08-22T19:32:05.914Z,56.58
2022-08-22T19:34:36.651Z,56.46
2022-08-22T19:36:39.788Z,56.40
2022-08-22T19:38:56.705Z,56.54
2022-08-22T19:40:59.852Z,57.40
2022-08-22T19:43:30.162Z,57.29
2022-08-22T19:45:40.856Z,56.93
2022-08-22T19:47:44.861Z,57.78
2022-08-22T19:49:58.706Z,57.10
2022-08-22T19:52:10.304Z,57.33
2022-08-22T19:54:18.096Z,57.77
2022-08-22T19:56:33.713Z,58.20
2022-08-22T19:58:57.585Z,57.99
2022-08-22T20:01:06.481Z,57.73
2022-08-22T20:03:15.409Z,57.46
2022-08-22T20:05:37.752Z,57.51
2022-08-22T20:07:51.122Z,58.07
2022-08-22T20:10:02.400Z,57.59
2022-08-22T20:12:15.489Z,58.17
2022-08-22T20:14:26.556Z,58.50
2022-08-22T20:17:02.687Z,56.77
2022-08-22T20:19:19.144Z,56.76
2022-08-22T20:21:44.462Z,56.68
2022-08-22T20:23:47.871Z,56.27
2022-08-22T20:25:52.960Z,56.52
2022-08-22T20:28:02.861Z,56.55
2022-08-22T20:30:10.814Z,57.81
2022-08-22T20:32:16.545Z,58.77
2022-08-22T20:34:23.440Z,57.90
2022-08-22T20:36:28.557Z,58.20
2022-08-22T20:38:38.079Z,57.45
2022-08-22T20:40:56.346Z,58.30
2022-08-22T20:43:04.316Z,57.50
2022-08-22T20:45:18.168Z,57.81
2022-08-22T20:47:26.287Z,58.47
2022-08-22T20:49:42.445Z,57.68
2022-08-22T20:51:52.683Z,58.98
2022-08-22T20:53:58.607Z,59.53
2022-08-22T20:56:01.614Z,60.29
2022-08-22T20:58:07.026Z,61.11
2022-08-22T21:00:12.976Z,60.88
2022-08-22T21:02:20.440Z,62.32
2022-08-22T21:04:26.729Z,62.53
2022-08-22T21:06:36.100Z,63.64
2022-08-22T21:08:39.414Z,64.04
2022-08-22T21:11:01.142Z,64.71
2022-08-22T21:13:08.474Z,65.46
2022-08-22T21:15:11.587Z,65.83
2022-08-22T21:17:22.157Z,66.37
2022-08-22T21:19:26.979Z,66.05
2022-08-22T21:21:31.494Z,65.84
2022-08-22T21:23:35.031Z,66.48
2022-08-22T21:25:53.721Z,67.60
2022-08-22T21:27:57.139Z,66.19
2022-08-22T21:30:01.972Z,67.65
2022-08-22T21:32:24.523Z,66.72
2022-08-22T21:34:29.835Z,68.36
2022-08-22T21:36:33.065Z,68.49
2022-08-22T21:38:36.095Z,67.82
2022-08-22T21:40:39.820Z,69.13
2022-08-22T21:42:46.209Z,69.03
2022-08-22T21:44:56.861Z,67.75
2022-08-22T21:47:19.124Z,69.05
2022-08-22T21:49:34.095Z,69.65
2022-08-22T21:51:42.675Z,69.09
2022-08-22T21:53:45.712Z,69.25
2022-08-22T21:55:48.799Z,70.54
2022-08-22T21:58:12.055Z,70.06
2022-08-22T22:00:41.181Z,71.69
2022-08-22T22:02:59.959Z,71.35
2022-08-22T22:05:09.989Z,70.32
2022-08-22T22:07:14.490Z,71.34
2022-08-22T22:09:19.139Z,71.45
2022-08-22T22:11:22.207Z,70.30
2022-08-22T22:13:27.158Z,70.96
2022-08-22T22:15:33.153Z,71.32
2022-08-22T22:17:36.255Z,72.93
2022-08-22T22:19:39.812Z,72.79
2022-08-22T22:21:42.799Z,71.00
2022-08-22T22:23:46.029Z,73.19
2022-08-22T22:25:49.567Z,72.77
2022-08-22T22:27:52.856Z,71.90
2022-08-22T22:29:58.860Z,72.73
2022-08-22T22:32:01.882Z,73.20
2022-08-22T22:34:05.160Z,71.76
2022-08-22T22:36:11.277Z,72.69
2022-08-22T22:38:14.709Z,72.86
2022-08-22T22:40:17.798Z,73.29
2022-08-22T22:42:20.892Z,73.67
2022-08-22T22:44:25.259Z,73.70
2022-08-22T22:46:29.760Z,72.68
2022-08-22T22:48:32.920Z,73.70
2022-08-22T22:50:40.395Z,73.72
2022-08-22T22:52:43.412Z,73.89
2022-08-22T22:54:46.564Z,74.96
2022-08-22T22:56:53.451Z,75.18
2022-08-22T22:58:58.981Z,74.71
2022-08-22T23:01:08.283Z,74.75
2022-08-22T23:03:12.754Z,74.90
2022-08-22T23:05:15.895Z,73.85
2022-08-22T23:07:19.373Z,74.54
2022-08-22T23:09:23.858Z,75.30
2022-08-22T23:11:41.824Z,75.48
2022-08-22T23:13:44.808Z,74.83
2022-08-22T23:15:47.801Z,75.81
2022-08-22T23:17:50.811Z,75.19
2022-08-22T23:19:55.208Z,74.91
2022-08-22T23:21:59.532Z,75.42
2022-08-22T23:24:04.402Z,76.22
2022-08-22T23:26:07.859Z,75.21
2022-08-22T23:28:11.007Z,76.12
2022-08-22T23:30:14.472Z,75.53
2022-08-22T23:32:17.783Z,75.73
2022-08-22T23:34:22.951Z,75.97
2022-08-22T23:36:27.319Z,76.04
2022-08-22T23:38:30.333Z,76.56
2022-08-22T23:40:33.608Z,76.43
2022-08-22T23:42:36.685Z,76.73
2022-08-22T23:44:41.152Z,76.71
2022-08-22T23:46:44.568Z,76.12
2022-08-22T23:48:47.724Z,76.63
2022-08-22T23:50:50.707Z,76.44
2022-08-22T23:52:55.155Z,75.93
2022-08-22T23:54:58.115Z,76.83
2022-08-22T23:57:02.814Z,77.09
2022-08-22T23:59:16.691Z,77.47
